sensor_id;sensor_type;location;lat;lon;timestamp;P1;durP1;ratioP1;P2;durP2;ratioP2
8285;SDS011;4181;43.416;24.598;2023-04-15T00:00:56;8.13;;;4.63;;
8285;SDS011;4181;43.416;24.598;2023-04-15T00:03:23;5.57;;;4.20;;
8285;SDS011;4181;43.416;24.598;2023-04-15T00:05:48;5.33;;;4.03;;
8285;SDS011;4181;43.416;24.598;2023-04-15T00:08:14;7.30;;;3.90;;
8285;SDS011;4181;43.416;24.598;2023-04-15T00:10:39;7.23;;;3.87;;
8285;SDS011;4181;43.416;24.598;2023-04-15T00:13:08;11.50;;;4.67;;
8285;SDS011;4181;43.416;24.598;2023-04-15T00:15:34;5.43;;;3.97;;
8285;SDS011;4181;43.416;24.598;2023-04-15T00:17:59;5.63;;;4.30;;
8285;SDS011;4181;43.416;24.598;2023-04-15T00:20:25;6.03;;;3.73;;
8285;SDS011;4181;43.416;24.598;2023-04-15T00:22:53;5.50;;;3.57;;
8285;SDS011;4181;43.416;24.598;2023-04-15T00:25:18;9.17;;;4.10;;
8285;SDS011;4181;43.416;24.598;2023-04-15T00:27:44;5.33;;;3.20;;
8285;SDS011;4181;43.416;24.598;2023-04-15T00:30:09;5.40;;;4.07;;
8285;SDS011;4181;43.416;24.598;2023-04-15T00:32:35;4.60;;;3.43;;
8285;SDS011;4181;43.416;24.598;2023-04-15T00:35:01;7.03;;;4.93;;
8285;SDS011;4181;43.416;24.598;2023-04-15T00:37:27;7.40;;;4.53;;
8285;SDS011;4181;43.416;24.598;2023-04-15T00:39:52;5.40;;;4.10;;
8285;SDS011;4181;43.416;24.598;2023-04-15T00:42:17;6.53;;;4.33;;
8285;SDS011;4181;43.416;24.598;2023-04-15T00:44:45;6.67;;;4.07;;
8285;SDS011;4181;43.416;24.598;2023-04-15T00:47:11;7.17;;;4.67;;
8285;SDS011;4181;43.416;24.598;2023-04-15T00:49:37;7.43;;;5.10;;
8285;SDS011;4181;43.416;24.598;2023-04-15T00:52:03;10.70;;;5.40;;
8285;SDS011;4181;43.416;24.598;2023-04-15T00:54:28;9.60;;;5.73;;
8285;SDS011;4181;43.416;24.598;2023-04-15T00:56:54;7.30;;;5.87;;
8285;SDS011;4181;43.416;24.598;2023-04-15T00:59:20;8.13;;;5.63;;
8285;SDS011;4181;43.416;24.598;2023-04-15T01:01:46;8.20;;;4.70;;
8285;SDS011;4181;43.416;24.598;2023-04-15T01:04:11;6.93;;;4.73;;
8285;SDS011;4181;43.416;24.598;2023-04-15T01:06:37;7.00;;;4.83;;
8285;SDS011;4181;43.416;24.598;2023-04-15T01:09:02;9.93;;;5.60;;
8285;SDS011;4181;43.416;24.598;2023-04-15T01:11:28;9.50;;;4.17;;
8285;SDS011;4181;43.416;24.598;2023-04-15T01:13:54;7.50;;;4.90;;
8285;SDS011;4181;43.416;24.598;2023-04-15T01:16:21;6.80;;;4.00;;
8285;SDS011;4181;43.416;24.598;2023-04-15T01:18:46;5.83;;;4.60;;
8285;SDS011;4181;43.416;24.598;2023-04-15T01:21:13;25.43;;;14.83;;
8285;SDS011;4181;43.416;24.598;2023-04-15T01:23:38;8.97;;;6.77;;
8285;SDS011;4181;43.416;24.598;2023-04-15T01:26:05;8.17;;;4.77;;
8285;SDS011;4181;43.416;24.598;2023-04-15T01:28:32;8.60;;;5.33;;
8285;SDS011;4181;43.416;24.598;2023-04-15T01:31:08;5.53;;;4.80;;
8285;SDS011;4181;43.416;24.598;2023-04-15T01:33:35;6.13;;;4.07;;
8285;SDS011;4181;43.416;24.598;2023-04-15T01:36:02;6.07;;;3.70;;
8285;SDS011;4181;43.416;24.598;2023-04-15T01:38:28;10.43;;;5.23;;
8285;SDS011;4181;43.416;24.598;2023-04-15T01:40:54;8.20;;;5.30;;
8285;SDS011;4181;43.416;24.598;2023-04-15T01:43:19;9.57;;;5.03;;
8285;SDS011;4181;43.416;24.598;2023-04-15T01:45:45;8.60;;;4.67;;
8285;SDS011;4181;43.416;24.598;2023-04-15T01:48:11;5.97;;;4.40;;
8285;SDS011;4181;43.416;24.598;2023-04-15T01:50:36;6.17;;;4.50;;
8285;SDS011;4181;43.416;24.598;2023-04-15T01:53:02;6.00;;;4.17;;
8285;SDS011;4181;43.416;24.598;2023-04-15T01:55:28;6.67;;;4.57;;
8285;SDS011;4181;43.416;24.598;2023-04-15T01:57:54;6.27;;;4.90;;
8285;SDS011;4181;43.416;24.598;2023-04-15T02:00:20;6.37;;;4.60;;
8285;SDS011;4181;43.416;24.598;2023-04-15T02:02:46;5.43;;;3.97;;
8285;SDS011;4181;43.416;24.598;2023-04-15T02:05:11;6.43;;;4.90;;
8285;SDS011;4181;43.416;24.598;2023-04-15T02:07:37;7.63;;;4.33;;
8285;SDS011;4181;43.416;24.598;2023-04-15T02:10:02;7.93;;;5.30;;
8285;SDS011;4181;43.416;24.598;2023-04-15T02:12:28;9.57;;;5.67;;
8285;SDS011;4181;43.416;24.598;2023-04-15T02:14:53;13.03;;;7.47;;
8285;SDS011;4181;43.416;24.598;2023-04-15T02:17:19;6.60;;;4.80;;
8285;SDS011;4181;43.416;24.598;2023-04-15T02:19:45;8.93;;;5.03;;
8285;SDS011;4181;43.416;24.598;2023-04-15T02:22:12;6.80;;;4.87;;
8285;SDS011;4181;43.416;24.598;2023-04-15T02:24:42;6.07;;;5.47;;
8285;SDS011;4181;43.416;24.598;2023-04-15T02:27:10;7.13;;;5.00;;
8285;SDS011;4181;43.416;24.598;2023-04-15T02:29:39;7.33;;;5.20;;
8285;SDS011;4181;43.416;24.598;2023-04-15T02:32:04;7.43;;;5.27;;
8285;SDS011;4181;43.416;24.598;2023-04-15T02:34:30;8.23;;;6.00;;
8285;SDS011;4181;43.416;24.598;2023-04-15T02:36:57;13.93;;;6.60;;
8285;SDS011;4181;43.416;24.598;2023-04-15T02:39:23;21.77;;;11.23;;
8285;SDS011;4181;43.416;24.598;2023-04-15T02:41:48;21.90;;;14.03;;
8285;SDS011;4181;43.416;24.598;2023-04-15T02:44:17;10.27;;;6.73;;
8285;SDS011;4181;43.416;24.598;2023-04-15T02:46:44;7.93;;;5.97;;
8285;SDS011;4181;43.416;24.598;2023-04-15T02:49:14;12.53;;;5.27;;
8285;SDS011;4181;43.416;24.598;2023-04-15T02:51:40;8.30;;;5.30;;
8285;SDS011;4181;43.416;24.598;2023-04-15T02:54:06;10.23;;;7.37;;
8285;SDS011;4181;43.416;24.598;2023-04-15T02:56:31;9.53;;;5.07;;
8285;SDS011;4181;43.416;24.598;2023-04-15T02:58:57;5.07;;;3.80;;
8285;SDS011;4181;43.416;24.598;2023-04-15T03:01:23;6.67;;;4.53;;
8285;SDS011;4181;43.416;24.598;2023-04-15T03:03:48;5.07;;;4.33;;
8285;SDS011;4181;43.416;24.598;2023-04-15T03:06:14;5.57;;;4.00;;
8285;SDS011;4181;43.416;24.598;2023-04-15T03:08:39;5.63;;;3.93;;
8285;SDS011;4181;43.416;24.598;2023-04-15T03:11:05;4.57;;;3.70;;
8285;SDS011;4181;43.416;24.598;2023-04-15T03:13:32;9.70;;;3.90;;
8285;SDS011;4181;43.416;24.598;2023-04-15T03:15:57;4.77;;;4.10;;
8285;SDS011;4181;43.416;24.598;2023-04-15T03:18:23;32.43;;;20.03;;
8285;SDS011;4181;43.416;24.598;2023-04-15T03:20:48;17.90;;;10.63;;
8285;SDS011;4181;43.416;24.598;2023-04-15T03:23:13;6.63;;;4.37;;
8285;SDS011;4181;43.416;24.598;2023-04-15T03:25:39;5.93;;;4.17;;
8285;SDS011;4181;43.416;24.598;2023-04-15T03:28:05;7.07;;;4.63;;
8285;SDS011;4181;43.416;24.598;2023-04-15T03:30:30;6.50;;;4.40;;
8285;SDS011;4181;43.416;24.598;2023-04-15T03:32:56;6.17;;;4.13;;
8285;SDS011;4181;43.416;24.598;2023-04-15T03:35:21;12.13;;;5.23;;
8285;SDS011;4181;43.416;24.598;2023-04-15T03:37:46;29.37;;;15.10;;
8285;SDS011;4181;43.416;24.598;2023-04-15T03:40:13;16.13;;;7.40;;
8285;SDS011;4181;43.416;24.598;2023-04-15T03:42:39;4.93;;;3.77;;
8285;SDS011;4181;43.416;24.598;2023-04-15T03:45:04;7.73;;;4.20;;
8285;SDS011;4181;43.416;24.598;2023-04-15T03:47:31;7.83;;;4.07;;
8285;SDS011;4181;43.416;24.598;2023-04-15T03:49:57;9.67;;;4.60;;
8285;SDS011;4181;43.416;24.598;2023-04-15T03:52:22;14.47;;;4.30;;
8285;SDS011;4181;43.416;24.598;2023-04-15T03:54:48;8.10;;;4.40;;
8285;SDS011;4181;43.416;24.598;2023-04-15T03:57:13;9.30;;;4.30;;
8285;SDS011;4181;43.416;24.598;2023-04-15T03:59:38;9.70;;;4.53;;
8285;SDS011;4181;43.416;24.598;2023-04-15T04:02:04;7.53;;;4.23;;
8285;SDS011;4181;43.416;24.598;2023-04-15T04:04:29;7.60;;;4.57;;
8285;SDS011;4181;43.416;24.598;2023-04-15T04:06:55;13.83;;;4.67;;
8285;SDS011;4181;43.416;24.598;2023-04-15T04:09:21;9.67;;;4.03;;
8285;SDS011;4181;43.416;24.598;2023-04-15T04:11:47;10.90;;;4.17;;
8285;SDS011;4181;43.416;24.598;2023-04-15T04:14:12;7.17;;;3.83;;
8285;SDS011;4181;43.416;24.598;2023-04-15T04:16:38;7.03;;;5.03;;
8285;SDS011;4181;43.416;24.598;2023-04-15T04:19:03;10.40;;;5.30;;
8285;SDS011;4181;43.416;24.598;2023-04-15T04:21:29;7.17;;;4.43;;
8285;SDS011;4181;43.416;24.598;2023-04-15T04:23:55;5.87;;;4.30;;
8285;SDS011;4181;43.416;24.598;2023-04-15T04:26:20;12.97;;;5.27;;
8285;SDS011;4181;43.416;24.598;2023-04-15T04:28:46;7.03;;;4.60;;
8285;SDS011;4181;43.416;24.598;2023-04-15T04:31:12;6.70;;;4.50;;
8285;SDS011;4181;43.416;24.598;2023-04-15T04:33:37;16.27;;;5.00;;
8285;SDS011;4181;43.416;24.598;2023-04-15T04:36:03;13.23;;;4.33;;
8285;SDS011;4181;43.416;24.598;2023-04-15T04:38:29;14.13;;;8.77;;
8285;SDS011;4181;43.416;24.598;2023-04-15T04:40:55;58.90;;;52.70;;
8285;SDS011;4181;43.416;24.598;2023-04-15T04:43:20;46.03;;;41.20;;
8285;SDS011;4181;43.416;24.598;2023-04-15T04:45:47;23.57;;;13.67;;
8285;SDS011;4181;43.416;24.598;2023-04-15T04:48:12;16.53;;;9.80;;
8285;SDS011;4181;43.416;24.598;2023-04-15T04:50:38;14.63;;;7.37;;
8285;SDS011;4181;43.416;24.598;2023-04-15T04:53:03;12.77;;;7.20;;
8285;SDS011;4181;43.416;24.598;2023-04-15T04:55:29;11.20;;;5.50;;
8285;SDS011;4181;43.416;24.598;2023-04-15T04:57:56;8.30;;;5.70;;
8285;SDS011;4181;43.416;24.598;2023-04-15T05:00:21;11.27;;;6.87;;
8285;SDS011;4181;43.416;24.598;2023-04-15T05:02:47;15.23;;;8.70;;
8285;SDS011;4181;43.416;24.598;2023-04-15T05:05:13;17.63;;;8.53;;
8285;SDS011;4181;43.416;24.598;2023-04-15T05:07:40;9.27;;;6.60;;
8285;SDS011;4181;43.416;24.598;2023-04-15T05:10:06;16.00;;;7.00;;
8285;SDS011;4181;43.416;24.598;2023-04-15T05:12:32;12.13;;;6.47;;
8285;SDS011;4181;43.416;24.598;2023-04-15T05:14:59;13.13;;;6.60;;
8285;SDS011;4181;43.416;24.598;2023-04-15T05:17:25;10.10;;;6.90;;
8285;SDS011;4181;43.416;24.598;2023-04-15T05:19:50;18.00;;;7.07;;
8285;SDS011;4181;43.416;24.598;2023-04-15T05:22:17;14.27;;;6.77;;
8285;SDS011;4181;43.416;24.598;2023-04-15T05:24:43;11.73;;;8.50;;
8285;SDS011;4181;43.416;24.598;2023-04-15T05:27:08;14.67;;;7.93;;
8285;SDS011;4181;43.416;24.598;2023-04-15T05:29:35;17.57;;;7.70;;
8285;SDS011;4181;43.416;24.598;2023-04-15T05:32:01;15.47;;;6.93;;
8285;SDS011;4181;43.416;24.598;2023-04-15T05:34:26;13.33;;;5.67;;
8285;SDS011;4181;43.416;24.598;2023-04-15T05:36:52;17.83;;;6.30;;
8285;SDS011;4181;43.416;24.598;2023-04-15T05:39:17;6.13;;;4.33;;
8285;SDS011;4181;43.416;24.598;2023-04-15T05:41:43;11.73;;;5.20;;
8285;SDS011;4181;43.416;24.598;2023-04-15T05:44:08;7.07;;;4.97;;
8285;SDS011;4181;43.416;24.598;2023-04-15T05:46:34;6.73;;;4.90;;
8285;SDS011;4181;43.416;24.598;2023-04-15T05:48:59;19.50;;;7.70;;
8285;SDS011;4181;43.416;24.598;2023-04-15T05:51:25;17.17;;;9.13;;
8285;SDS011;4181;43.416;24.598;2023-04-15T05:53:51;9.23;;;5.90;;
8285;SDS011;4181;43.416;24.598;2023-04-15T05:56:18;8.93;;;5.77;;
8285;SDS011;4181;43.416;24.598;2023-04-15T05:58:44;8.63;;;5.53;;
8285;SDS011;4181;43.416;24.598;2023-04-15T06:01:10;7.10;;;4.97;;
8285;SDS011;4181;43.416;24.598;2023-04-15T06:03:36;9.20;;;5.07;;
8285;SDS011;4181;43.416;24.598;2023-04-15T06:06:02;7.80;;;4.90;;
8285;SDS011;4181;43.416;24.598;2023-04-15T06:08:28;7.40;;;4.70;;
8285;SDS011;4181;43.416;24.598;2023-04-15T06:10:53;11.47;;;5.10;;
8285;SDS011;4181;43.416;24.598;2023-04-15T06:13:19;11.17;;;6.93;;
8285;SDS011;4181;43.416;24.598;2023-04-15T06:15:45;10.17;;;5.90;;
8285;SDS011;4181;43.416;24.598;2023-04-15T06:18:10;11.83;;;7.00;;
8285;SDS011;4181;43.416;24.598;2023-04-15T06:20:35;12.43;;;5.63;;
8285;SDS011;4181;43.416;24.598;2023-04-15T06:23:01;9.07;;;5.23;;
8285;SDS011;4181;43.416;24.598;2023-04-15T06:25:27;11.97;;;5.37;;
8285;SDS011;4181;43.416;24.598;2023-04-15T06:27:52;7.83;;;5.00;;
8285;SDS011;4181;43.416;24.598;2023-04-15T06:30:17;15.40;;;5.70;;
8285;SDS011;4181;43.416;24.598;2023-04-15T06:32:43;10.40;;;5.53;;
8285;SDS011;4181;43.416;24.598;2023-04-15T06:35:08;11.23;;;5.17;;
8285;SDS011;4181;43.416;24.598;2023-04-15T06:37:34;8.97;;;5.13;;
8285;SDS011;4181;43.416;24.598;2023-04-15T06:40:00;8.23;;;5.30;;
8285;SDS011;4181;43.416;24.598;2023-04-15T06:42:25;10.17;;;4.53;;
8285;SDS011;4181;43.416;24.598;2023-04-15T06:44:52;8.57;;;4.53;;
8285;SDS011;4181;43.416;24.598;2023-04-15T06:47:17;6.60;;;3.13;;
8285;SDS011;4181;43.416;24.598;2023-04-15T06:49:43;6.57;;;3.03;;
8285;SDS011;4181;43.416;24.598;2023-04-15T06:52:09;5.87;;;2.47;;
8285;SDS011;4181;43.416;24.598;2023-04-15T06:54:35;4.67;;;2.57;;
8285;SDS011;4181;43.416;24.598;2023-04-15T06:57:00;7.23;;;3.10;;
8285;SDS011;4181;43.416;24.598;2023-04-15T06:59:27;6.20;;;2.80;;
8285;SDS011;4181;43.416;24.598;2023-04-15T07:01:53;6.97;;;2.70;;
8285;SDS011;4181;43.416;24.598;2023-04-15T07:04:18;8.43;;;4.67;;
8285;SDS011;4181;43.416;24.598;2023-04-15T07:06:44;4.77;;;3.03;;
8285;SDS011;4181;43.416;24.598;2023-04-15T07:09:10;5.43;;;2.70;;
8285;SDS011;4181;43.416;24.598;2023-04-15T07:11:35;3.63;;;2.07;;
8285;SDS011;4181;43.416;24.598;2023-04-15T07:14:01;6.60;;;2.90;;
8285;SDS011;4181;43.416;24.598;2023-04-15T07:16:28;7.63;;;2.90;;
8285;SDS011;4181;43.416;24.598;2023-04-15T07:18:53;4.83;;;2.30;;
8285;SDS011;4181;43.416;24.598;2023-04-15T07:21:20;4.37;;;2.80;;
8285;SDS011;4181;43.416;24.598;2023-04-15T07:23:45;6.07;;;3.10;;
8285;SDS011;4181;43.416;24.598;2023-04-15T07:26:11;4.83;;;2.17;;
8285;SDS011;4181;43.416;24.598;2023-04-15T07:28:36;5.13;;;2.50;;
8285;SDS011;4181;43.416;24.598;2023-04-15T07:31:02;4.17;;;2.70;;
8285;SDS011;4181;43.416;24.598;2023-04-15T07:33:28;5.00;;;2.30;;
8285;SDS011;4181;43.416;24.598;2023-04-15T07:35:53;2.97;;;2.20;;
8285;SDS011;4181;43.416;24.598;2023-04-15T07:38:19;4.07;;;2.60;;
8285;SDS011;4181;43.416;24.598;2023-04-15T07:40:45;8.23;;;2.70;;
8285;SDS011;4181;43.416;24.598;2023-04-15T07:43:10;6.07;;;2.30;;
8285;SDS011;4181;43.416;24.598;2023-04-15T07:45:38;2.73;;;2.33;;
8285;SDS011;4181;43.416;24.598;2023-04-15T07:48:04;5.33;;;2.37;;
8285;SDS011;4181;43.416;24.598;2023-04-15T07:50:31;5.80;;;2.83;;
8285;SDS011;4181;43.416;24.598;2023-04-15T07:52:57;5.40;;;2.20;;
8285;SDS011;4181;43.416;24.598;2023-04-15T07:55:22;7.17;;;2.33;;
8285;SDS011;4181;43.416;24.598;2023-04-15T07:57:48;6.67;;;2.43;;
8285;SDS011;4181;43.416;24.598;2023-04-15T08:00:14;4.33;;;3.00;;
8285;SDS011;4181;43.416;24.598;2023-04-15T08:02:40;4.60;;;2.33;;
8285;SDS011;4181;43.416;24.598;2023-04-15T08:05:07;9.90;;;8.70;;
8285;SDS011;4181;43.416;24.598;2023-04-15T08:07:55;6.27;;;3.30;;
8285;SDS011;4181;43.416;24.598;2023-04-15T08:10:22;5.83;;;2.03;;
8285;SDS011;4181;43.416;24.598;2023-04-15T08:12:48;3.57;;;1.97;;
8285;SDS011;4181;43.416;24.598;2023-04-15T08:15:14;5.47;;;2.10;;
8285;SDS011;4181;43.416;24.598;2023-04-15T08:17:40;6.63;;;2.70;;
8285;SDS011;4181;43.416;24.598;2023-04-15T08:20:07;7.77;;;2.03;;
8285;SDS011;4181;43.416;24.598;2023-04-15T08:22:35;6.80;;;2.10;;
8285;SDS011;4181;43.416;24.598;2023-04-15T08:25:01;4.77;;;2.80;;
8285;SDS011;4181;43.416;24.598;2023-04-15T08:27:28;6.60;;;2.47;;
8285;SDS011;4181;43.416;24.598;2023-04-15T08:30:12;6.07;;;2.37;;
8285;SDS011;4181;43.416;24.598;2023-04-15T08:32:38;3.53;;;2.43;;
8285;SDS011;4181;43.416;24.598;2023-04-15T08:35:03;6.33;;;3.00;;
8285;SDS011;4181;43.416;24.598;2023-04-15T08:37:29;4.80;;;2.47;;
8285;SDS011;4181;43.416;24.598;2023-04-15T08:39:55;6.30;;;2.60;;
8285;SDS011;4181;43.416;24.598;2023-04-15T08:42:22;3.40;;;2.30;;
8285;SDS011;4181;43.416;24.598;2023-04-15T08:44:55;2.93;;;2.03;;
8285;SDS011;4181;43.416;24.598;2023-04-15T08:47:25;4.73;;;2.13;;
8285;SDS011;4181;43.416;24.598;2023-04-15T08:49:53;4.93;;;2.17;;
8285;SDS011;4181;43.416;24.598;2023-04-15T08:52:23;4.17;;;1.97;;
8285;SDS011;4181;43.416;24.598;2023-04-15T08:54:50;4.77;;;2.27;;
8285;SDS011;4181;43.416;24.598;2023-04-15T08:57:22;3.17;;;2.20;;
8285;SDS011;4181;43.416;24.598;2023-04-15T08:59:53;6.20;;;1.87;;
8285;SDS011;4181;43.416;24.598;2023-04-15T09:02:21;5.63;;;1.90;;
8285;SDS011;4181;43.416;24.598;2023-04-15T09:04:47;3.60;;;2.17;;
8285;SDS011;4181;43.416;24.598;2023-04-15T09:07:13;5.70;;;2.50;;
8285;SDS011;4181;43.416;24.598;2023-04-15T09:09:39;4.73;;;1.73;;
8285;SDS011;4181;43.416;24.598;2023-04-15T09:12:06;6.70;;;1.87;;
8285;SDS011;4181;43.416;24.598;2023-04-15T09:14:32;5.10;;;1.80;;
8285;SDS011;4181;43.416;24.598;2023-04-15T09:16:59;3.90;;;1.60;;
8285;SDS011;4181;43.416;24.598;2023-04-15T09:19:26;3.03;;;1.40;;
8285;SDS011;4181;43.416;24.598;2023-04-15T09:21:56;7.63;;;1.60;;
8285;SDS011;4181;43.416;24.598;2023-04-15T09:24:36;4.23;;;2.17;;
8285;SDS011;4181;43.416;24.598;2023-04-15T09:27:03;2.53;;;1.70;;
8285;SDS011;4181;43.416;24.598;2023-04-15T09:29:29;4.50;;;1.63;;
8285;SDS011;4181;43.416;24.598;2023-04-15T09:35:17;7.03;;;2.73;;
8285;SDS011;4181;43.416;24.598;2023-04-15T09:37:50;6.70;;;2.77;;
8285;SDS011;4181;43.416;24.598;2023-04-15T09:40:32;3.07;;;1.80;;
8285;SDS011;4181;43.416;24.598;2023-04-15T09:43:02;4.57;;;1.80;;
8285;SDS011;4181;43.416;24.598;2023-04-15T09:45:29;4.90;;;2.00;;
8285;SDS011;4181;43.416;24.598;2023-04-15T09:47:59;3.03;;;1.70;;
8285;SDS011;4181;43.416;24.598;2023-04-15T09:50:40;3.77;;;1.90;;
8285;SDS011;4181;43.416;24.598;2023-04-15T09:53:08;6.10;;;2.20;;
8285;SDS011;4181;43.416;24.598;2023-04-15T09:55:42;5.27;;;2.03;;
8285;SDS011;4181;43.416;24.598;2023-04-15T09:58:16;5.20;;;1.90;;
8285;SDS011;4181;43.416;24.598;2023-04-15T10:00:52;5.63;;;2.00;;
8285;SDS011;4181;43.416;24.598;2023-04-15T10:03:20;4.80;;;1.60;;
8285;SDS011;4181;43.416;24.598;2023-04-15T10:05:57;6.90;;;2.30;;
8285;SDS011;4181;43.416;24.598;2023-04-15T10:08:25;4.23;;;1.73;;
8285;SDS011;4181;43.416;24.598;2023-04-15T10:10:52;2.27;;;1.80;;
8285;SDS011;4181;43.416;24.598;2023-04-15T10:13:19;3.37;;;1.90;;
8285;SDS011;4181;43.416;24.598;2023-04-15T10:15:53;5.67;;;2.57;;
8285;SDS011;4181;43.416;24.598;2023-04-15T10:18:20;6.00;;;2.40;;
8285;SDS011;4181;43.416;24.598;2023-04-15T10:20:49;4.43;;;1.50;;
8285;SDS011;4181;43.416;24.598;2023-04-15T10:23:15;5.57;;;1.67;;
8285;SDS011;4181;43.416;24.598;2023-04-15T10:25:42;3.90;;;1.73;;
8285;SDS011;4181;43.416;24.598;2023-04-15T10:28:08;11.20;;;5.80;;
8285;SDS011;4181;43.416;24.598;2023-04-15T10:30:34;4.77;;;2.70;;
8285;SDS011;4181;43.416;24.598;2023-04-15T10:33:01;3.47;;;1.90;;
8285;SDS011;4181;43.416;24.598;2023-04-15T10:35:30;3.27;;;2.20;;
8285;SDS011;4181;43.416;24.598;2023-04-15T10:37:57;3.57;;;1.60;;
8285;SDS011;4181;43.416;24.598;2023-04-15T10:42:59;4.33;;;1.67;;
8285;SDS011;4181;43.416;24.598;2023-04-15T10:45:35;4.83;;;2.10;;
8285;SDS011;4181;43.416;24.598;2023-04-15T10:48:02;3.13;;;1.50;;
8285;SDS011;4181;43.416;24.598;2023-04-15T10:50:30;2.53;;;1.50;;
8285;SDS011;4181;43.416;24.598;2023-04-15T10:52:57;2.60;;;1.30;;
8285;SDS011;4181;43.416;24.598;2023-04-15T10:55:26;3.97;;;1.70;;
8285;SDS011;4181;43.416;24.598;2023-04-15T10:57:59;3.77;;;1.60;;
8285;SDS011;4181;43.416;24.598;2023-04-15T11:00:27;2.83;;;1.60;;
8285;SDS011;4181;43.416;24.598;2023-04-15T11:08:05;4.27;;;1.80;;
8285;SDS011;4181;43.416;24.598;2023-04-15T11:12:58;3.33;;;1.60;;
8285;SDS011;4181;43.416;24.598;2023-04-15T11:17:58;2.77;;;1.43;;
8285;SDS011;4181;43.416;24.598;2023-04-15T11:20:24;3.77;;;1.70;;
8285;SDS011;4181;43.416;24.598;2023-04-15T11:22:50;3.37;;;1.40;;
8285;SDS011;4181;43.416;24.598;2023-04-15T11:25:21;4.80;;;1.80;;
8285;SDS011;4181;43.416;24.598;2023-04-15T11:27:53;3.70;;;1.90;;
8285;SDS011;4181;43.416;24.598;2023-04-15T11:30:20;3.13;;;1.87;;
8285;SDS011;4181;43.416;24.598;2023-04-15T11:32:53;4.10;;;1.80;;
8285;SDS011;4181;43.416;24.598;2023-04-15T11:35:23;3.13;;;1.60;;
8285;SDS011;4181;43.416;24.598;2023-04-15T11:37:49;4.87;;;1.83;;
8285;SDS011;4181;43.416;24.598;2023-04-15T11:40:15;5.33;;;1.50;;
8285;SDS011;4181;43.416;24.598;2023-04-15T11:42:43;4.40;;;1.70;;
8285;SDS011;4181;43.416;24.598;2023-04-15T11:45:10;3.40;;;1.80;;
8285;SDS011;4181;43.416;24.598;2023-04-15T11:47:37;4.27;;;1.80;;
8285;SDS011;4181;43.416;24.598;2023-04-15T11:52:54;5.73;;;2.00;;
8285;SDS011;4181;43.416;24.598;2023-04-15T11:55:21;4.37;;;1.93;;
8285;SDS011;4181;43.416;24.598;2023-04-15T11:58:04;3.97;;;1.77;;
8285;SDS011;4181;43.416;24.598;2023-04-15T12:00:33;3.80;;;2.07;;
8285;SDS011;4181;43.416;24.598;2023-04-15T12:14:19;4.17;;;2.63;;
8285;SDS011;4181;43.416;24.598;2023-04-15T12:17:04;2.90;;;1.60;;
8285;SDS011;4181;43.416;24.598;2023-04-15T12:19:37;4.23;;;1.93;;
8285;SDS011;4181;43.416;24.598;2023-04-15T12:22:07;4.90;;;1.80;;
8285;SDS011;4181;43.416;24.598;2023-04-15T12:24:35;4.73;;;1.90;;
8285;SDS011;4181;43.416;24.598;2023-04-15T12:27:02;7.77;;;1.70;;
8285;SDS011;4181;43.416;24.598;2023-04-15T12:29:28;4.33;;;1.70;;
8285;SDS011;4181;43.416;24.598;2023-04-15T12:31:56;3.63;;;1.67;;
8285;SDS011;4181;43.416;24.598;2023-04-15T12:34:29;6.43;;;1.80;;
8285;SDS011;4181;43.416;24.598;2023-04-15T12:36:57;3.53;;;1.70;;
8285;SDS011;4181;43.416;24.598;2023-04-15T12:39:24;6.27;;;1.77;;
8285;SDS011;4181;43.416;24.598;2023-04-15T12:41:51;4.73;;;1.70;;
8285;SDS011;4181;43.416;24.598;2023-04-15T12:44:17;1.50;;;1.40;;
8285;SDS011;4181;43.416;24.598;2023-04-15T12:46:42;4.20;;;1.60;;
8285;SDS011;4181;43.416;24.598;2023-04-15T12:49:08;3.93;;;1.80;;
8285;SDS011;4181;43.416;24.598;2023-04-15T12:51:34;4.17;;;1.83;;
8285;SDS011;4181;43.416;24.598;2023-04-15T12:53:59;3.47;;;1.90;;
8285;SDS011;4181;43.416;24.598;2023-04-15T12:56:25;3.77;;;2.00;;
8285;SDS011;4181;43.416;24.598;2023-04-15T12:58:51;2.80;;;1.53;;
8285;SDS011;4181;43.416;24.598;2023-04-15T13:01:16;4.23;;;1.70;;
8285;SDS011;4181;43.416;24.598;2023-04-15T13:03:45;7.37;;;3.10;;
8285;SDS011;4181;43.416;24.598;2023-04-15T13:06:11;3.83;;;1.83;;
8285;SDS011;4181;43.416;24.598;2023-04-15T13:08:36;4.77;;;1.40;;
8285;SDS011;4181;43.416;24.598;2023-04-15T13:11:02;4.80;;;1.60;;
8285;SDS011;4181;43.416;24.598;2023-04-15T13:13:27;2.60;;;1.70;;
8285;SDS011;4181;43.416;24.598;2023-04-15T13:15:53;5.73;;;2.40;;
8285;SDS011;4181;43.416;24.598;2023-04-15T13:18:18;4.60;;;1.87;;
8285;SDS011;4181;43.416;24.598;2023-04-15T13:20:44;3.87;;;1.73;;
8285;SDS011;4181;43.416;24.598;2023-04-15T13:23:10;2.93;;;1.50;;
8285;SDS011;4181;43.416;24.598;2023-04-15T13:25:35;5.10;;;1.97;;
8285;SDS011;4181;43.416;24.598;2023-04-15T13:28:01;2.83;;;1.63;;
8285;SDS011;4181;43.416;24.598;2023-04-15T13:30:27;6.13;;;2.00;;
8285;SDS011;4181;43.416;24.598;2023-04-15T13:32:52;3.77;;;1.70;;
8285;SDS011;4181;43.416;24.598;2023-04-15T13:35:19;3.10;;;1.80;;
8285;SDS011;4181;43.416;24.598;2023-04-15T13:37:46;4.07;;;1.57;;
8285;SDS011;4181;43.416;24.598;2023-04-15T13:40:11;3.43;;;1.90;;
8285;SDS011;4181;43.416;24.598;2023-04-15T13:42:37;3.53;;;1.53;;
8285;SDS011;4181;43.416;24.598;2023-04-15T13:45:02;2.53;;;1.20;;
8285;SDS011;4181;43.416;24.598;2023-04-15T13:47:28;2.30;;;1.40;;
8285;SDS011;4181;43.416;24.598;2023-04-15T13:49:54;4.73;;;1.70;;
8285;SDS011;4181;43.416;24.598;2023-04-15T13:52:22;3.67;;;1.53;;
8285;SDS011;4181;43.416;24.598;2023-04-15T13:54:47;8.10;;;1.77;;
8285;SDS011;4181;43.416;24.598;2023-04-15T13:57:14;18.80;;;3.17;;
8285;SDS011;4181;43.416;24.598;2023-04-15T13:59:39;35.33;;;5.90;;
8285;SDS011;4181;43.416;24.598;2023-04-15T14:02:05;3.03;;;1.40;;
8285;SDS011;4181;43.416;24.598;2023-04-15T14:04:31;2.30;;;1.30;;
8285;SDS011;4181;43.416;24.598;2023-04-15T14:06:56;2.97;;;1.40;;
8285;SDS011;4181;43.416;24.598;2023-04-15T14:09:25;5.30;;;1.90;;
8285;SDS011;4181;43.416;24.598;2023-04-15T14:11:51;4.07;;;1.57;;
8285;SDS011;4181;43.416;24.598;2023-04-15T14:14:16;4.00;;;1.47;;
8285;SDS011;4181;43.416;24.598;2023-04-15T14:16:42;2.70;;;1.33;;
8285;SDS011;4181;43.416;24.598;2023-04-15T14:19:08;4.80;;;1.50;;
8285;SDS011;4181;43.416;24.598;2023-04-15T14:21:33;3.87;;;1.70;;
8285;SDS011;4181;43.416;24.598;2023-04-15T14:23:58;2.50;;;1.70;;
8285;SDS011;4181;43.416;24.598;2023-04-15T14:26:24;5.90;;;1.60;;
8285;SDS011;4181;43.416;24.598;2023-04-15T14:28:50;6.33;;;1.70;;
8285;SDS011;4181;43.416;24.598;2023-04-15T14:31:15;3.63;;;1.73;;
8285;SDS011;4181;43.416;24.598;2023-04-15T14:33:41;1.97;;;1.40;;
8285;SDS011;4181;43.416;24.598;2023-04-15T14:36:07;4.30;;;1.47;;
8285;SDS011;4181;43.416;24.598;2023-04-15T14:38:33;5.50;;;1.50;;
8285;SDS011;4181;43.416;24.598;2023-04-15T14:41:03;3.37;;;1.50;;
8285;SDS011;4181;43.416;24.598;2023-04-15T14:43:28;4.93;;;2.27;;
8285;SDS011;4181;43.416;24.598;2023-04-15T14:45:54;6.67;;;2.60;;
8285;SDS011;4181;43.416;24.598;2023-04-15T14:48:19;5.80;;;2.53;;
8285;SDS011;4181;43.416;24.598;2023-04-15T14:50:45;5.87;;;3.37;;
8285;SDS011;4181;43.416;24.598;2023-04-15T14:53:11;7.03;;;3.77;;
8285;SDS011;4181;43.416;24.598;2023-04-15T14:55:36;4.07;;;2.40;;
8285;SDS011;4181;43.416;24.598;2023-04-15T14:58:02;3.87;;;1.83;;
8285;SDS011;4181;43.416;24.598;2023-04-15T15:00:28;5.27;;;2.20;;
8285;SDS011;4181;43.416;24.598;2023-04-15T15:02:54;4.13;;;1.73;;
8285;SDS011;4181;43.416;24.598;2023-04-15T15:05:19;2.83;;;1.40;;
8285;SDS011;4181;43.416;24.598;2023-04-15T15:07:45;4.97;;;1.90;;
8285;SDS011;4181;43.416;24.598;2023-04-15T15:10:10;4.20;;;1.90;;
8285;SDS011;4181;43.416;24.598;2023-04-15T15:12:36;4.93;;;2.30;;
8285;SDS011;4181;43.416;24.598;2023-04-15T15:15:02;4.53;;;1.57;;
8285;SDS011;4181;43.416;24.598;2023-04-15T15:17:28;5.70;;;1.90;;
8285;SDS011;4181;43.416;24.598;2023-04-15T15:19:54;2.80;;;1.80;;
8285;SDS011;4181;43.416;24.598;2023-04-15T15:22:20;2.17;;;1.70;;
8285;SDS011;4181;43.416;24.598;2023-04-15T15:24:46;4.00;;;1.80;;